ELNBOWERS FLD
METARs for airports near ELN, sorted by distance:
N 0 nm 1763' KELN 161153Z 00000KT 10SM CLR 02/M01 A3010
NE 25 nm 1248' KEAT 161155Z 27005KT 10SM CLR 07/03 A3009
S 28 nm 1098' KYKM 161153Z 28004KT 10SM CLR 01/01 A3011
NE 44 nm 1276' KEPH 161153Z 04003KT 10SM CLR 04/03 A3009
E 50 nm 1188' KMWH 161152Z 02003KT 10SM CLR 03/02 A3010
SE 66 nm 394' KRLD 161215Z 00000KT 10SM CLR 05/04 A3011
W 72 nm 537' KPLU 161155Z 18005KT 10SM SCT043 OVC055 15/06 A3007
W 74 nm 32' KRNT 161153Z 13004KT 10SM OVC055 13/08 A3005
SE 74 nm 410' KPSC 161153Z 00000KT 10SM CLR 04/03 A3011
W 76 nm 432' KSEA 161153Z 14008KT 10SM BKN046 OVC060 13/08 A3005
NW 78 nm 21' KBFI 161153Z 14007KT 10SM OVC050 13/08 A3005
W 79 nm 322' KTCM 161158Z 18005KT 10SM OVC043 13/09 A3006
W 83 nm 301' KGRF 161158Z 11003KT 10SM BKN043 OVC055 13/08 A3005
W 84 nm 294' KTIW 161153Z 17004KT 10SM OVC046 12/09 A3006
NW 88 nm 606' KPAE 161153Z VRB05KT 10SM OVC039 12/08 A3004
S 89 nm 246' KDLS 161153Z 00000KT 10SM CLR 07/05 A3013
SE 89 nm 644' KHRI 161153Z 16004KT 10SM CLR 06/03 A3011
NW 94 nm 141' KAWO 161156Z 13010KT 10SM SCT045 BKN055 OVC085 12/09 A3004
NE 95 nm 1304' KOMK 161153Z 00000KT 10SM CLR 07/04 A3007
W 95 nm 444' KPWT 161214Z 00000KT 10SM OVC029 11/11 A3005
W 97 nm 207' KOLM 161154Z 19013KT 10SM SCT036 BKN043 OVC070 13/08 A3005
TAFs for airports near ELN, sorted by distance:
NE 25 nm 1248' KEAT TAF KEAT 161126Z 1612/1712 28004KT P6SM SCT100 SCT200
  FM162000 12004KT P6SM FEW150 SCT250
  FM170300 VRB02KT P6SM SCT120 SCT250
  FM171000 30006KT P6SM SCT120 BKN180
S 28 nm 1098' KYKM TAF KYKM 161120Z 1612/1712 29006KT P6SM BKN180
  FM161900 VRB03KT P6SM BKN200
  FM170400 28006KT P6SM BKN180
E 50 nm 1188' KMWH TAF KMWH 161126Z 1612/1712 01004KT P6SM SCT100 SCT250
  FM161800 17006KT P6SM FEW150 SCT250
  FM170400 02003KT P6SM FEW150 SCT250
  FM171000 01005KT P6SM SCT120 BKN200
SE 74 nm 410' KPSC TAF KPSC 161120Z 1612/1712 VRB06KT P6SM BKN200
W 76 nm 432' KSEA TAF KSEA 161120Z 1612/1718 15005KT P6SM FEW040 FEW060 OVC100
  FM161600 19008KT P6SM SCT020 BKN050 OVC100
  FM162300 19007KT P6SM BKN070 OVC120
  FM170500 20006KT P6SM VCSH BKN050 OVC070
  FM171000 21003KT P6SM BKN025 OVC050
  FM171500 24003KT P6SM OVC025
NW 78 nm 21' KBFI TAF KBFI 161120Z 1612/1712 14006KT P6SM BKN070 OVC110
  FM161600 18008KT P6SM SCT025 BKN050 OVC100
  FM162300 17008KT P6SM BKN070 OVC120
  FM170300 16005KT P6SM VCSH BKN070 OVC080
  FM171000 19003KT P6SM BKN030 OVC050
W 79 nm 322' KTCM TAF KTCM 160500Z 1605/1711 20006KT 9999 OVC045 QNH3012INS
  BECMG 1611/1612 17005KT 9999 FEW060 BKN180 QNH3005INS
  BECMG 1617/1618 19010G15KT 9999 BKN100 OVC200 QNH3000INS
  BECMG 1710/1711 19006KT 9999 VCSH SCT015 OVC035 QNH2979INS TX18/1623Z TN08/1613Z
W 83 nm 301' KGRF TAF KGRF 160500Z 1605/1711 14004KT 9999 BKN050 QNH3011INS
  BECMG 1609/1610 20005KT 9999 SCT040 BKN080 QNH3009INS
  BECMG 1617/1618 20010G18KT 9999 SCT030 QNH3001INS
  BECMG 1708/1709 20005KT 9999 BKN030 QNH2977INS TX17/1622Z TN10/1615Z
NW 88 nm 606' KPAE TAF KPAE 161120Z 1612/1712 15010KT P6SM -RA SCT040 BKN070 OVC090
  FM161600 19012KT P6SM SCT020 BKN050 OVC100
  FM162300 19015G20KT 6SM -RA BKN022 OVC040
  FM170300 16008KT P6SM OVC050
S 89 nm 246' KDLS TAF KDLS 161120Z 1612/1712 12005KT P6SM FEW010 SCT200
  FM161300 12005KT P6SM SCT008
  FM161800 33005KT P6SM SCT200
  FM170900 VRB04KT P6SM BKN200
W 95 nm 444' KPWT TAF KPWT 161120Z 1612/1712 22003KT P6SM OVC035
  FM161600 19018KT P6SM SCT015 BKN040 OVC080
  FM162300 19012KT P6SM -RA BKN015 OVC030
  FM170300 20004KT P6SM OVC050
  FM171000 VRB02KT P6SM OVC015
W 97 nm 207' KOLM TAF KOLM 161120Z 1612/1712 20007KT P6SM BKN045 OVC060
  FM161500 18007KT P6SM OVC050
  FM170000 21005KT P6SM OVC100
  FM170600 22003KT P6SM OVC050
  FM171000 20005KT P6SM OVC020

Shortcut to this page: http://wxbay.com.

Data may contain errors.